createdAt,value
2022-09-26T00:01:08.015Z,12.17
2022-09-26T00:03:36.290Z,12.16
2022-09-26T00:06:04.805Z,12.22
2022-09-26T00:08:32.839Z,12.27
2022-09-26T00:11:02.411Z,12.17
2022-09-26T00:13:33.110Z,12.14
2022-09-26T00:16:00.732Z,12.18
2022-09-26T00:18:28.393Z,12.00
2022-09-26T00:21:04.261Z,12.10
2022-09-26T00:23:31.902Z,12.12
2022-09-26T00:25:59.887Z,12.16
2022-09-26T00:28:27.805Z,12.10
2022-09-26T00:30:57.465Z,12.17
2022-09-26T00:33:25.900Z,12.16
2022-09-26T00:35:54.820Z,12.19
2022-09-26T00:38:22.999Z,12.14
2022-09-26T00:40:51.111Z,12.07
2022-09-26T00:43:32.491Z,12.00
2022-09-26T00:46:05.721Z,11.98
2022-09-26T00:48:36.479Z,11.94
2022-09-26T00:51:05.353Z,11.97
2022-09-26T00:53:37.097Z,11.96
2022-09-26T00:56:09.937Z,11.91
2022-09-26T00:58:42.612Z,11.91
2022-09-26T01:01:12.138Z,11.99
2022-09-26T01:03:42.693Z,12.07
2022-09-26T01:06:10.571Z,12.02
2022-09-26T01:08:43.022Z,11.98
2022-09-26T01:11:16.676Z,12.01
2022-09-26T01:13:45.525Z,11.96
2022-09-26T01:16:14.449Z,11.88
2022-09-26T01:18:42.592Z,11.82
2022-09-26T01:21:30.409Z,11.78
2022-09-26T01:24:24.530Z,11.58
2022-09-26T01:27:15.348Z,11.69
2022-09-26T01:30:08.659Z,11.57
2022-09-26T01:32:53.589Z,11.76
2022-09-26T01:35:51.362Z,11.92
2022-09-26T01:38:28.108Z,11.80
2022-09-26T01:41:09.828Z,11.85
2022-09-26T01:43:43.738Z,11.80
2022-09-26T01:46:22.532Z,11.84
2022-09-26T01:48:56.167Z,11.87
2022-09-26T01:51:29.974Z,11.93
2022-09-26T01:54:02.778Z,11.71
2022-09-26T01:56:35.306Z,11.84
2022-09-26T01:59:08.981Z,11.82
2022-09-26T02:01:42.506Z,11.81
2022-09-26T02:04:13.127Z,11.80
2022-09-26T02:06:45.499Z,11.83
2022-09-26T02:09:15.950Z,11.85
2022-09-26T02:11:46.924Z,11.72
2022-09-26T02:14:19.375Z,11.70
2022-09-26T02:16:50.574Z,11.65
2022-09-26T02:19:21.555Z,11.78
2022-09-26T02:21:49.937Z,11.78
2022-09-26T02:24:17.763Z,11.86
2022-09-26T02:26:45.445Z,11.79
2022-09-26T02:29:14.936Z,11.84
2022-09-26T02:31:49.153Z,11.74
2022-09-26T02:34:18.098Z,11.75
2022-09-26T02:36:46.313Z,11.75
2022-09-26T02:39:14.525Z,11.76
2022-09-26T02:41:50.775Z,11.83
2022-09-26T02:44:33.738Z,11.74
2022-09-26T02:47:17.495Z,11.77
2022-09-26T02:50:01.526Z,11.69
2022-09-26T02:52:39.886Z,11.67
2022-09-26T02:55:16.192Z,11.78
2022-09-26T02:57:53.135Z,11.79
2022-09-26T03:00:24.970Z,11.63
2022-09-26T03:03:03.659Z,11.63
2022-09-26T03:05:36.065Z,11.72
2022-09-26T03:08:09.248Z,11.66
2022-09-26T03:10:39.102Z,11.71
2022-09-26T03:13:11.144Z,11.76
2022-09-26T03:15:41.652Z,11.72
2022-09-26T03:18:13.413Z,11.74
2022-09-26T03:20:42.492Z,11.71
2022-09-26T03:23:10.173Z,11.74
2022-09-26T03:25:38.189Z,11.78
2022-09-26T03:28:05.834Z,11.84
2022-09-26T03:30:33.489Z,11.78
2022-09-26T03:33:03.121Z,11.78
2022-09-26T03:35:30.705Z,11.81
2022-09-26T03:37:59.547Z,11.67
2022-09-26T03:40:27.200Z,11.55
2022-09-26T03:42:54.739Z,11.65
2022-09-26T03:45:22.320Z,11.68
2022-09-26T03:47:56.566Z,11.66
2022-09-26T03:50:24.573Z,11.67
2022-09-26T03:52:52.398Z,11.69
2022-09-26T03:55:21.358Z,11.72
2022-09-26T03:57:48.848Z,11.73
2022-09-26T04:00:16.581Z,11.72
2022-09-26T04:02:44.371Z,11.75
2022-09-26T04:05:11.982Z,11.71
2022-09-26T04:07:39.496Z,11.70
2022-09-26T04:10:08.326Z,11.70
2022-09-26T04:12:37.220Z,11.66
2022-09-26T04:15:05.320Z,11.69
2022-09-26T04:17:32.847Z,11.67
2022-09-26T04:20:00.552Z,11.63
2022-09-26T04:22:28.249Z,11.67
2022-09-26T04:24:55.937Z,11.69
2022-09-26T04:27:23.644Z,11.67
2022-09-26T04:29:52.609Z,11.66
2022-09-26T04:32:20.169Z,11.64
2022-09-26T04:34:47.710Z,11.68
2022-09-26T04:37:15.261Z,11.63
2022-09-26T04:39:43.669Z,11.62
2022-09-26T04:42:11.174Z,11.56
2022-09-26T04:44:38.735Z,11.62
2022-09-26T04:47:08.316Z,11.66
2022-09-26T04:49:35.959Z,11.63
2022-09-26T04:52:03.497Z,11.58
2022-09-26T04:54:31.024Z,11.61
2022-09-26T04:57:01.166Z,11.46
2022-09-26T04:59:28.726Z,11.46
2022-09-26T05:01:56.367Z,11.46
2022-09-26T05:04:27.608Z,11.50
2022-09-26T05:06:57.566Z,11.45
2022-09-26T05:09:25.266Z,11.48
2022-09-26T05:11:52.855Z,11.39
2022-09-26T05:14:20.425Z,11.30
2022-09-26T05:16:48.628Z,11.39
2022-09-26T05:19:16.264Z,11.42
2022-09-26T05:21:45.178Z,11.41
2022-09-26T05:24:30.604Z,11.36
2022-09-26T05:26:58.183Z,11.29
2022-09-26T05:29:25.715Z,11.33
2022-09-26T05:31:54.163Z,11.25
2022-09-26T05:34:22.734Z,11.23
2022-09-26T05:36:51.790Z,11.33
2022-09-26T05:39:41.655Z,11.33
2022-09-26T05:42:10.093Z,11.34
2022-09-26T05:44:39.755Z,11.39
2022-09-26T05:47:08.566Z,11.40
2022-09-26T05:49:36.242Z,11.37
2022-09-26T05:52:05.225Z,11.41
2022-09-26T05:54:32.819Z,11.40
2022-09-26T05:57:00.834Z,11.41
2022-09-26T05:59:28.399Z,11.35
2022-09-26T06:01:58.199Z,11.40
2022-09-26T06:04:25.805Z,11.42
2022-09-26T06:06:53.358Z,11.37
2022-09-26T06:09:23.097Z,11.42
2022-09-26T06:11:50.637Z,11.37
2022-09-26T06:14:18.151Z,11.30
2022-09-26T06:16:45.664Z,11.34
2022-09-26T06:19:13.228Z,11.30
2022-09-26T06:21:40.931Z,11.31
2022-09-26T06:24:08.823Z,11.37
2022-09-26T06:26:38.074Z,11.36
2022-09-26T06:29:07.425Z,11.32
2022-09-26T06:31:35.217Z,11.34
2022-09-26T06:34:02.807Z,11.32
2022-09-26T06:36:31.470Z,11.21
2022-09-26T06:38:58.993Z,11.28
2022-09-26T06:41:27.426Z,11.25
2022-09-26T06:43:56.815Z,11.21
2022-09-26T06:46:24.417Z,11.18
2022-09-26T06:48:51.974Z,11.04
2022-09-26T06:51:20.007Z,11.05
2022-09-26T06:53:47.574Z,11.07
2022-09-26T06:56:15.107Z,10.99
2022-09-26T06:58:43.008Z,10.91
2022-09-26T07:01:12.446Z,10.98
2022-09-26T07:03:44.560Z,10.72
2022-09-26T07:06:13.970Z,10.80
2022-09-26T07:09:01.602Z,10.69
2022-09-26T07:11:56.636Z,10.98
2022-09-26T07:14:17.264Z,10.94
2022-09-26T07:16:46.182Z,10.97
2022-09-26T07:19:13.935Z,10.85
2022-09-26T07:21:41.590Z,10.94
2022-09-26T07:24:14.008Z,10.98
2022-09-26T07:26:41.931Z,10.96
2022-09-26T07:29:09.783Z,11.02
2022-09-26T07:31:37.997Z,11.01
2022-09-26T07:34:08.498Z,11.05
2022-09-26T07:36:36.167Z,10.97
2022-09-26T07:39:03.720Z,10.98
2022-09-26T07:41:31.440Z,10.95
2022-09-26T07:47:04.113Z,10.95
2022-09-26T07:50:02.012Z,11.08
2022-09-26T07:52:29.838Z,11.05
2022-09-26T07:54:57.469Z,11.09
2022-09-26T07:57:25.060Z,11.15
2022-09-26T07:59:54.216Z,11.14
2022-09-26T08:02:22.947Z,11.07
2022-09-26T08:04:58.836Z,11.13
2022-09-26T08:07:28.389Z,11.12
2022-09-26T08:09:56.244Z,11.08
2022-09-26T08:12:23.913Z,11.13
2022-09-26T08:14:52.944Z,11.22
2022-09-26T08:17:21.261Z,11.26
2022-09-26T08:19:49.198Z,11.28
2022-09-26T08:22:18.063Z,11.23
2022-09-26T08:24:49.695Z,11.25
2022-09-26T08:27:17.304Z,11.29
2022-09-26T08:29:48.498Z,11.45
2022-09-26T08:32:16.306Z,11.39
2022-09-26T08:34:44.384Z,11.34
2022-09-26T08:37:12.047Z,11.49
2022-09-26T08:39:40.913Z,11.55
2022-09-26T08:42:23.887Z,11.62
2022-09-26T08:45:33.600Z,11.60
2022-09-26T08:48:07.408Z,11.66
2022-09-26T08:50:44.324Z,11.64
2022-09-26T08:53:16.702Z,11.64
2022-09-26T08:55:47.553Z,11.65
2022-09-26T08:58:19.745Z,11.64
2022-09-26T09:00:51.422Z,11.70
2022-09-26T09:03:27.033Z,11.82
2022-09-26T09:06:00.625Z,11.90
2022-09-26T09:08:39.899Z,11.93
2022-09-26T09:11:21.000Z,12.03
2022-09-26T09:14:09.430Z,12.13
2022-09-26T09:16:53.262Z,12.12
2022-09-26T09:19:34.211Z,12.23
2022-09-26T09:22:16.747Z,12.33
2022-09-26T09:24:57.094Z,12.37
2022-09-26T09:27:54.712Z,12.36
2022-09-26T09:30:25.103Z,12.48
2022-09-26T09:32:56.797Z,12.48
2022-09-26T09:35:43.563Z,12.57
2022-09-26T09:38:17.221Z,12.52
2022-09-26T09:40:51.197Z,12.57
2022-09-26T09:43:27.919Z,12.51
2022-09-26T09:46:00.060Z,12.42
2022-09-26T09:48:28.691Z,12.40
2022-09-26T09:51:10.496Z,12.41
2022-09-26T09:54:00.767Z,12.37
2022-09-26T09:56:39.261Z,12.29
2022-09-26T09:59:29.107Z,12.36
2022-09-26T10:02:10.619Z,12.50
2022-09-26T10:04:44.314Z,12.51
2022-09-26T10:07:11.882Z,12.62
2022-09-26T10:09:41.524Z,12.88
2022-09-26T10:12:16.620Z,12.80
2022-09-26T10:14:51.005Z,12.89
2022-09-26T10:17:23.148Z,12.85
2022-09-26T10:19:51.534Z,12.80
2022-09-26T10:22:24.925Z,12.75
2022-09-26T10:24:54.631Z,12.82
2022-09-26T10:27:35.002Z,13.05
2022-09-26T10:30:09.945Z,13.03
2022-09-26T10:32:47.111Z,13.11
2022-09-26T10:35:20.029Z,13.22
2022-09-26T10:37:50.919Z,13.30
2022-09-26T10:40:43.636Z,13.33
2022-09-26T10:43:30.494Z,13.54
2022-09-26T10:46:04.699Z,13.61
2022-09-26T10:48:48.037Z,13.53
2022-09-26T10:51:27.690Z,13.68
2022-09-26T10:54:04.012Z,13.66
2022-09-26T10:56:36.843Z,13.68
2022-09-26T10:59:08.194Z,13.63
2022-09-26T11:01:42.965Z,13.68
2022-09-26T11:04:38.066Z,13.81
2022-09-26T11:07:08.341Z,13.65
2022-09-26T11:09:36.972Z,13.71
2022-09-26T11:12:25.213Z,13.80
2022-09-26T11:14:57.718Z,14.01
2022-09-26T11:17:43.263Z,13.97
2022-09-26T11:20:15.886Z,13.75
2022-09-26T11:22:49.247Z,13.87
2022-09-26T11:25:24.141Z,14.00
2022-09-26T11:27:57.293Z,13.86
2022-09-26T11:30:27.876Z,13.97
2022-09-26T11:33:00.379Z,13.82
2022-09-26T11:35:43.442Z,13.87
2022-09-26T11:38:24.545Z,13.91
2022-09-26T11:41:08.039Z,13.81
2022-09-26T11:43:54.159Z,13.76
2022-09-26T11:46:35.868Z,13.78
2022-09-26T11:49:24.046Z,13.83
2022-09-26T11:52:07.126Z,13.84
2022-09-26T11:54:59.669Z,13.95
2022-09-26T11:57:38.223Z,13.94
2022-09-26T12:00:15.730Z,13.95
2022-09-26T12:03:12.642Z,13.92
2022-09-26T12:05:50.319Z,13.99
2022-09-26T12:08:30.172Z,14.03
2022-09-26T12:11:06.736Z,14.11
2022-09-26T12:13:47.185Z,14.31
2022-09-26T12:16:22.210Z,14.45
2022-09-26T12:18:59.437Z,14.56
2022-09-26T12:21:39.778Z,14.48
2022-09-26T12:24:14.113Z,14.55
2022-09-26T12:26:48.968Z,14.55
2022-09-26T12:29:28.034Z,14.41
2022-09-26T12:32:14.674Z,14.42
2022-09-26T12:35:00.131Z,14.36
2022-09-26T12:37:50.346Z,14.38
2022-09-26T12:40:29.185Z,14.32
2022-09-26T12:43:24.375Z,14.27
2022-09-26T12:46:09.856Z,14.15
2022-09-26T12:48:54.714Z,14.13
2022-09-26T12:51:33.447Z,14.18
2022-09-26T12:54:19.430Z,14.16
2022-09-26T12:56:53.115Z,14.34
2022-09-26T12:59:37.834Z,14.81
2022-09-26T13:02:25.143Z,14.83
2022-09-26T13:05:17.483Z,14.78
2022-09-26T13:07:58.248Z,14.65
2022-09-26T13:10:39.002Z,14.60
2022-09-26T13:13:43.873Z,14.72
2022-09-26T13:16:21.437Z,14.67
2022-09-26T13:18:53.694Z,14.75
2022-09-26T13:21:28.446Z,14.78
2022-09-26T13:24:00.480Z,14.67
2022-09-26T13:26:34.745Z,14.52
2022-09-26T13:29:17.263Z,14.39
2022-09-26T13:31:51.108Z,14.29
2022-09-26T13:34:26.238Z,14.24
2022-09-26T13:36:56.231Z,14.27
2022-09-26T13:39:32.516Z,14.30
2022-09-26T13:42:07.505Z,14.29
2022-09-26T13:44:57.432Z,14.15
2022-09-26T13:47:35.752Z,14.09
2022-09-26T13:50:16.476Z,14.07
2022-09-26T13:52:52.773Z,13.98
2022-09-26T13:55:22.497Z,13.88
2022-09-26T13:58:06.677Z,13.87
2022-09-26T14:00:49.070Z,13.97
2022-09-26T14:03:42.377Z,14.00
2022-09-26T14:06:36.168Z,13.90
2022-09-26T14:09:23.780Z,13.90
2022-09-26T14:11:55.145Z,13.88
2022-09-26T14:14:27.103Z,13.69
2022-09-26T14:16:56.619Z,13.68
2022-09-26T14:19:35.815Z,13.84
2022-09-26T14:22:05.628Z,13.91
2022-09-26T14:24:38.443Z,13.77
2022-09-26T14:27:22.259Z,13.78
2022-09-26T14:29:55.066Z,13.78
2022-09-26T14:32:28.176Z,13.88
2022-09-26T14:34:59.269Z,14.12
2022-09-26T14:37:40.260Z,14.23
2022-09-26T14:40:35.280Z,14.29
2022-09-26T14:43:13.781Z,14.21
2022-09-26T14:45:57.690Z,14.10
2022-09-26T14:48:33.406Z,14.14
2022-09-26T14:51:05.207Z,14.22
2022-09-26T14:53:41.105Z,14.25
2022-09-26T14:56:13.369Z,14.13
2022-09-26T14:58:50.995Z,14.08
2022-09-26T15:01:28.263Z,14.21
2022-09-26T15:04:02.911Z,14.29
2022-09-26T15:06:32.333Z,14.37
2022-09-26T15:09:00.303Z,14.38
2022-09-26T15:11:34.783Z,14.26
2022-09-26T15:14:14.406Z,14.25
2022-09-26T15:16:48.234Z,14.31
2022-09-26T15:19:19.191Z,14.31
2022-09-26T15:21:52.381Z,14.40
2022-09-26T15:24:28.289Z,14.22
2022-09-26T15:27:00.846Z,14.00
2022-09-26T15:29:28.735Z,13.93
2022-09-26T15:31:57.862Z,13.85
2022-09-26T15:34:33.202Z,13.84
2022-09-26T15:37:02.361Z,13.71
2022-09-26T15:39:43.396Z,13.66
2022-09-26T15:42:44.603Z,13.70
2022-09-26T15:45:29.793Z,13.61
2022-09-26T15:48:01.005Z,13.56
2022-09-26T15:50:32.706Z,13.58
2022-09-26T15:53:07.030Z,13.59
2022-09-26T15:55:41.307Z,13.57
2022-09-26T15:58:16.271Z,13.66
2022-09-26T16:00:49.463Z,13.74
2022-09-26T16:03:37.857Z,13.62
2022-09-26T16:06:21.968Z,13.67
2022-09-26T16:08:56.447Z,13.68
2022-09-26T16:11:25.700Z,13.70
2022-09-26T16:13:54.337Z,13.62
2022-09-26T16:16:26.971Z,13.40
2022-09-26T16:18:58.668Z,13.50
2022-09-26T16:21:27.652Z,13.52
2022-09-26T16:23:57.798Z,13.37
2022-09-26T16:26:33.850Z,13.33
2022-09-26T16:29:01.562Z,13.31
2022-09-26T16:31:39.247Z,13.32
2022-09-26T16:34:21.089Z,13.18
2022-09-26T16:36:50.093Z,13.26
2022-09-26T16:39:22.056Z,13.25
2022-09-26T16:42:02.292Z,13.36
2022-09-26T16:44:35.789Z,13.37
2022-09-26T16:47:06.774Z,13.40
2022-09-26T16:49:51.140Z,13.42
2022-09-26T16:52:29.741Z,13.41
2022-09-26T16:54:58.939Z,13.33
2022-09-26T16:57:28.921Z,13.31
2022-09-26T17:00:15.232Z,13.28
2022-09-26T17:02:43.466Z,13.28
2022-09-26T17:05:18.382Z,13.26
2022-09-26T17:07:46.500Z,13.21
2022-09-26T17:10:14.374Z,13.23
2022-09-26T17:12:42.481Z,13.19
2022-09-26T17:15:20.362Z,13.20
2022-09-26T17:17:54.171Z,13.17
2022-09-26T17:20:23.891Z,13.26
2022-09-26T17:22:51.962Z,13.25
2022-09-26T17:25:19.893Z,13.25
2022-09-26T17:27:54.626Z,13.20
2022-09-26T17:30:22.157Z,13.21
2022-09-26T17:32:54.441Z,13.18
2022-09-26T17:35:26.626Z,13.20
2022-09-26T17:37:55.084Z,13.15
2022-09-26T17:40:25.341Z,13.18
2022-09-26T17:42:55.165Z,13.12
2022-09-26T17:45:28.528Z,13.13
2022-09-26T17:47:57.969Z,13.12
2022-09-26T17:50:29.900Z,13.12
2022-09-26T17:52:58.813Z,13.12
2022-09-26T17:55:27.081Z,13.09
2022-09-26T17:57:56.851Z,13.10
2022-09-26T18:00:24.378Z,13.06
2022-09-26T18:02:55.689Z,13.09
2022-09-26T18:05:26.317Z,13.04
2022-09-26T18:07:59.034Z,13.03
2022-09-26T18:10:30.376Z,13.01
2022-09-26T18:13:00.479Z,12.99
2022-09-26T18:15:30.881Z,12.99
2022-09-26T18:18:00.268Z,12.99
2022-09-26T18:20:37.041Z,12.98
2022-09-26T18:23:07.610Z,12.96
2022-09-26T18:25:37.173Z,12.93
2022-09-26T18:28:08.137Z,12.93
2022-09-26T18:30:35.881Z,12.88
2022-09-26T18:33:05.803Z,12.87
2022-09-26T18:35:33.333Z,12.82
2022-09-26T18:38:00.862Z,12.74
2022-09-26T18:40:31.107Z,12.71
2022-09-26T18:42:59.316Z,12.69
2022-09-26T18:45:29.094Z,12.68
2022-09-26T18:47:57.148Z,12.68
2022-09-26T18:50:29.995Z,12.69
2022-09-26T18:52:57.533Z,12.70
2022-09-26T18:55:44.039Z,12.66
2022-09-26T18:58:27.293Z,12.61
2022-09-26T19:00:57.869Z,12.59
2022-09-26T19:03:28.195Z,12.57
2022-09-26T19:06:02.839Z,12.55
2022-09-26T19:08:33.990Z,12.61
2022-09-26T19:11:09.901Z,12.55
2022-09-26T19:13:38.792Z,12.51
2022-09-26T19:16:07.041Z,12.55
2022-09-26T19:18:34.621Z,12.57
2022-09-26T19:21:03.764Z,12.55
2022-09-26T19:23:35.422Z,12.41
2022-09-26T19:26:03.513Z,12.41
2022-09-26T19:28:35.363Z,12.49
2022-09-26T19:31:04.967Z,12.57
2022-09-26T19:33:32.813Z,12.42
2022-09-26T19:36:00.409Z,12.37
2022-09-26T19:38:28.404Z,12.47
2022-09-26T19:40:56.660Z,12.23
2022-09-26T19:43:24.281Z,12.24
2022-09-26T19:45:55.539Z,12.38
2022-09-26T19:48:24.886Z,12.24
2022-09-26T19:50:53.729Z,12.19
2022-09-26T19:53:23.644Z,12.27
2022-09-26T19:55:51.505Z,12.26
2022-09-26T19:58:21.682Z,12.11
2022-09-26T20:00:51.656Z,12.11
2022-09-26T20:03:21.043Z,12.15
2022-09-26T20:05:50.776Z,12.14
2022-09-26T20:08:21.889Z,12.28
2022-09-26T20:10:49.619Z,12.31
2022-09-26T20:13:17.235Z,12.28
2022-09-26T20:15:45.965Z,12.38
2022-09-26T20:18:16.804Z,12.39
2022-09-26T20:20:53.145Z,12.29
2022-09-26T20:23:24.707Z,12.33
2022-09-26T20:25:54.688Z,12.21
2022-09-26T20:28:22.690Z,12.33
2022-09-26T20:30:52.334Z,12.29
2022-09-26T20:33:22.362Z,12.25
2022-09-26T20:35:53.581Z,12.27
2022-09-26T20:38:27.146Z,12.36
2022-09-26T20:41:00.761Z,12.30
2022-09-26T20:43:33.421Z,12.13
2022-09-26T20:46:03.955Z,12.24
2022-09-26T20:48:34.400Z,12.29
2022-09-26T20:51:02.599Z,12.29
2022-09-26T20:53:31.714Z,12.27
2022-09-26T20:55:59.323Z,12.22
2022-09-26T20:58:26.863Z,12.17
2022-09-26T21:00:54.551Z,12.17
2022-09-26T21:03:25.542Z,12.24
2022-09-26T21:05:53.226Z,12.26
2022-09-26T21:08:27.239Z,12.14
2022-09-26T21:10:57.729Z,12.12
2022-09-26T21:13:25.282Z,12.19
2022-09-26T21:15:53.843Z,12.19
2022-09-26T21:18:25.329Z,12.11
2022-09-26T21:20:53.747Z,12.09
2022-09-26T21:23:22.402Z,12.07
2022-09-26T21:25:50.372Z,12.08
2022-09-26T21:28:26.469Z,11.98
2022-09-26T21:30:55.722Z,12.11
2022-09-26T21:33:24.018Z,12.01
2022-09-26T21:35:52.276Z,12.05
2022-09-26T21:38:21.235Z,12.11
2022-09-26T21:40:53.510Z,12.04
2022-09-26T21:43:26.868Z,11.96
2022-09-26T21:45:54.616Z,12.03
2022-09-26T21:48:22.630Z,11.90
2022-09-26T21:50:57.949Z,12.10
2022-09-26T21:53:30.917Z,11.97
2022-09-26T21:56:07.322Z,11.98
2022-09-26T21:58:40.190Z,12.04
2022-09-26T22:01:08.688Z,11.96
2022-09-26T22:03:36.594Z,11.90
2022-09-26T22:06:07.538Z,12.01
2022-09-26T22:08:35.360Z,11.91
2022-09-26T22:11:03.583Z,11.92
2022-09-26T22:13:33.095Z,11.80
2022-09-26T22:16:06.790Z,11.88
2022-09-26T22:18:34.513Z,11.86
2022-09-26T22:21:04.797Z,11.96
2022-09-26T22:23:32.416Z,11.98
2022-09-26T22:26:00.036Z,11.96
2022-09-26T22:28:27.777Z,11.97
2022-09-26T22:30:55.587Z,11.98
2022-09-26T22:33:24.600Z,11.91
2022-09-26T22:35:52.262Z,11.90
2022-09-26T22:38:19.790Z,11.81
2022-09-26T22:40:57.071Z,11.86
2022-09-26T22:43:24.952Z,11.88
2022-09-26T22:45:52.727Z,11.85
2022-09-26T22:48:20.558Z,11.83
2022-09-26T22:50:49.669Z,11.84
2022-09-26T22:53:17.201Z,11.83
2022-09-26T22:55:52.574Z,11.88
2022-09-26T22:58:20.159Z,11.91
2022-09-26T23:00:48.040Z,11.90
2022-09-26T23:03:15.614Z,11.77
2022-09-26T23:05:43.268Z,11.73
2022-09-26T23:08:12.115Z,11.60
2022-09-26T23:10:39.649Z,11.72
2022-09-26T23:13:07.252Z,11.84
2022-09-26T23:15:34.811Z,11.87
2022-09-26T23:18:02.369Z,11.67
2022-09-26T23:20:29.902Z,11.86
2022-09-26T23:22:57.924Z,11.83
2022-09-26T23:25:26.835Z,11.92
2022-09-26T23:27:54.352Z,11.93
2022-09-26T23:30:22.841Z,11.99
2022-09-26T23:32:50.391Z,12.01
2022-09-26T23:35:16.787Z,11.87
2022-09-26T23:37:44.352Z,11.90
2022-09-26T23:40:12.075Z,11.83
2022-09-26T23:42:41.023Z,11.82
2022-09-26T23:45:09.606Z,11.85
2022-09-26T23:47:37.121Z,11.90
2022-09-26T23:50:05.300Z,11.82
2022-09-26T23:52:32.842Z,11.60
2022-09-26T23:55:00.525Z,11.72
2022-09-26T23:57:28.056Z,11.69
2022-09-26T23:59:56.941Z,11.61
